Jordan Valley, OR

6:00 PM MST on December 19, 2014 (GMT -0700)
Rome State | Change Station
CLOSE
Current Station
Airport
Location: Rome,
Elevation: 4049 ft
Nearby Weather Stations

Elev 4049 ft 42.59 °N, 117.86 °W | Updated 8 minutes ago

Mostly Cloudy
Mostly Cloudy
40 °F
Feels Like 33 °F
N
10
Wind Variable Wind from SSE
Gusts 5 mph

Today
High -- | Low -- °F
--% Chance of Precip.
Yesterday
High -- | Low -- °F
Precip. -- in
8:17 AM 5:20 PM
Waning Crescent, 5% visible
Pressure 30.06 in
Visibility -9999.0 miles
Clouds
Windchill 33 °F
Dew Point 32 °F
Humidity 73%
Rainfall 0.05 in
Snow Depth Not available.
UV Not available.
Pollen .30 out of 12
Air Quality Not available.
Flu Activity Not available.
METAR KREO 200052Z AUTO 15009KT 04/00 A3003 RMK AO1 SLP178 T00440000

More Conditions Fewer Conditions

Pressure 30.06 in
Visibility -9999.0 miles
Clouds
Windchill 33 °F
Dew Point 32 °F
Humidity 73%
Rainfall 0.05 in
Snow Depth Not available.
UV Not available.
Pollen .30 out of 12
Air Quality Not available.
Flu Activity Not available.
METAR KREO 200052Z AUTO 15009KT 04/00 A3003 RMK AO1 SLP178 T00440000

More Conditions Fewer Conditions

10-Day Weather Forecast

Almanac

Astronomy

Dec. 19, 2014 Rise Set
Actual Time
Civil Twilight
Nautical Twilight
Astronomical Twilight
Moon
Length of Visible Light
Length of Day
Tomorrow will be .
, % of the Moon is Illuminated

Today's Extremes

State Highs State Lows

Community

WunderPhotos

Upload Photos

1,779,095 photos uploaded!

WunderBlogs® & News

Nearby

Air Quality

  Air Quality AQ Index Pollutant
Not available.

Snow Depth

Station Depth Elevation

Earthquake Activity

City Distance Mag. Time & Date
Minimum magnitude displayed is 2.5.

Coastal Water Temperatures

Place Temperature

Nearby Weather Stations